createdAt,value
2022-10-28T00:04:53.986Z,99792.16
2022-10-28T00:09:55.758Z,99784.22
2022-10-28T00:14:57.846Z,99785.46
2022-10-28T00:19:59.693Z,99781.19
2022-10-28T00:25:01.970Z,99777.26
2022-10-28T00:30:04.950Z,99767.25
2022-10-28T00:35:08.008Z,99763.27
2022-10-28T00:40:10.562Z,99764.36
2022-10-28T00:45:12.801Z,99762.87
2022-10-28T00:50:29.029Z,99755.06
2022-10-28T00:55:33.229Z,99745.27
2022-10-28T01:00:35.148Z,99744.71
2022-10-28T01:05:42.794Z,99742.35
2022-10-28T01:11:09.656Z,99740.29
2022-10-28T01:16:56.629Z,99735.41
2022-10-28T01:22:13.357Z,99738.86
2022-10-28T01:27:29.906Z,99737.46
2022-10-28T01:32:44.037Z,99739.10
2022-10-28T01:38:00.218Z,99734.06
2022-10-28T01:43:36.864Z,99727.18
2022-10-28T01:48:48.094Z,99720.98
2022-10-28T01:53:53.788Z,99717.91
2022-10-28T01:58:59.102Z,99720.14
2022-10-28T02:04:01.394Z,99719.46
2022-10-28T02:09:06.545Z,99719.39
2022-10-28T02:14:11.318Z,99711.72
2022-10-28T02:19:25.374Z,99711.52
2022-10-28T02:25:02.505Z,99711.67
2022-10-28T02:30:07.029Z,99705.57
2022-10-28T02:35:19.087Z,99703.45
2022-10-28T02:40:25.932Z,99700.50
2022-10-28T02:45:35.349Z,99697.60
2022-10-28T02:50:42.358Z,99699.78
2022-10-28T02:55:48.317Z,99700.48
2022-10-28T03:00:51.425Z,99689.14
2022-10-28T03:05:53.852Z,99683.92
2022-10-28T03:10:55.910Z,99675.05
2022-10-28T03:15:57.935Z,99672.95
2022-10-28T03:20:59.738Z,99668.80
2022-10-28T03:26:01.860Z,99669.52
2022-10-28T03:31:04.940Z,99666.98
2022-10-28T03:36:07.436Z,99665.94
2022-10-28T03:41:09.310Z,99666.89
2022-10-28T03:46:11.124Z,99671.67
2022-10-28T03:51:13.140Z,99670.90
2022-10-28T03:56:21.827Z,99671.20
2022-10-28T04:01:23.686Z,99666.41
2022-10-28T04:06:25.738Z,99661.05
2022-10-28T04:11:27.511Z,99655.95
2022-10-28T04:16:29.353Z,99654.34
2022-10-28T04:21:31.161Z,99655.46
2022-10-28T04:26:33.191Z,99662.05
2022-10-28T04:31:35.002Z,99669.73
2022-10-28T04:36:37.475Z,99663.27
2022-10-28T04:41:39.276Z,99648.84
2022-10-28T04:46:41.006Z,99640.73
2022-10-28T04:51:42.978Z,99635.67
2022-10-28T04:56:44.785Z,99621.45
2022-10-28T05:01:47.136Z,99618.19
2022-10-28T05:06:49.474Z,99616.74
2022-10-28T05:11:52.086Z,99616.88
2022-10-28T05:16:54.141Z,99622.44
2022-10-28T05:21:56.174Z,99627.59
2022-10-28T05:26:59.971Z,99627.98
2022-10-28T05:32:02.307Z,99623.68
2022-10-28T05:37:04.718Z,99621.91
2022-10-28T05:42:06.535Z,99620.98
2022-10-28T05:47:08.382Z,99623.95
2022-10-28T05:52:10.662Z,99618.09
2022-10-28T05:57:13.212Z,99621.33
2022-10-28T06:02:15.378Z,99621.90
2022-10-28T06:07:17.302Z,99622.55
2022-10-28T06:12:17.683Z,99622.83
2022-10-28T06:17:19.543Z,99626.39
2022-10-28T06:22:21.708Z,99627.92
2022-10-28T06:27:23.575Z,99632.37
2022-10-28T06:32:25.653Z,99629.67
2022-10-28T06:37:27.723Z,99633.09
2022-10-28T06:42:29.927Z,99639.65
2022-10-28T06:47:34.889Z,99646.86
2022-10-28T06:52:39.633Z,99654.48
2022-10-28T06:57:41.488Z,99656.77
2022-10-28T07:02:45.204Z,99666.17
2022-10-28T07:07:47.870Z,99670.73
2022-10-28T07:12:52.835Z,99669.36
2022-10-28T07:17:57.307Z,99665.68
2022-10-28T07:23:00.898Z,99664.88
2022-10-28T07:28:02.999Z,99662.52
2022-10-28T07:33:05.840Z,99663.56
2022-10-28T07:38:08.022Z,99663.11
2022-10-28T07:43:10.534Z,99665.98
2022-10-28T07:48:12.591Z,99663.76
2022-10-28T07:58:17.715Z,99663.98
2022-10-28T08:03:19.893Z,99661.98
2022-10-28T08:08:21.693Z,99657.37
2022-10-28T08:13:23.839Z,99653.80
2022-10-28T08:18:32.858Z,99650.66
2022-10-28T08:23:35.255Z,99651.08
2022-10-28T08:28:36.980Z,99648.68
2022-10-28T08:33:42.244Z,99653.08
2022-10-28T08:38:46.372Z,99653.52
2022-10-28T08:43:57.764Z,99652.29
2022-10-28T08:49:03.061Z,99655.80
2022-10-28T08:54:13.428Z,99654.80
2022-10-28T08:59:22.721Z,99657.61
2022-10-28T09:04:36.349Z,99652.05
2022-10-28T09:09:38.779Z,99652.86
2022-10-28T09:14:52.163Z,99653.60
2022-10-28T09:20:10.010Z,99645.86
2022-10-28T09:25:36.650Z,99646.95
2022-10-28T09:31:06.473Z,99651.00
2022-10-28T09:36:19.891Z,99652.89
2022-10-28T09:41:27.764Z,99654.39
2022-10-28T09:46:34.627Z,99660.96
2022-10-28T09:51:47.006Z,99656.89
2022-10-28T09:56:51.200Z,99653.04
2022-10-28T10:01:54.042Z,99644.20
2022-10-28T10:07:02.706Z,99642.71
2022-10-28T10:12:10.176Z,99646.56
2022-10-28T10:17:17.689Z,99644.08
2022-10-28T10:22:33.407Z,99645.70
2022-10-28T10:27:35.795Z,99647.37
2022-10-28T10:32:45.833Z,99645.35
2022-10-28T10:37:57.640Z,99658.16
2022-10-28T10:43:18.177Z,99649.77
2022-10-28T10:48:20.506Z,99641.25
2022-10-28T10:53:32.067Z,99643.98
2022-10-28T10:59:03.010Z,99645.45
2022-10-28T11:04:07.530Z,99641.78
2022-10-28T11:09:31.001Z,99639.54
2022-10-28T11:14:33.080Z,99636.94
2022-10-28T11:19:37.622Z,99629.98
2022-10-28T11:24:58.244Z,99628.27
2022-10-28T11:30:00.948Z,99627.12
2022-10-28T11:35:09.501Z,99623.41
2022-10-28T11:40:13.377Z,99621.48
2022-10-28T11:45:44.696Z,99616.60
2022-10-28T11:51:12.208Z,99612.77
2022-10-28T11:56:34.612Z,99603.02
2022-10-28T12:02:05.114Z,99592.39
2022-10-28T12:07:26.901Z,99587.76
2022-10-28T12:12:50.445Z,99591.45
2022-10-28T12:18:06.255Z,99595.58
2022-10-28T12:23:18.876Z,99588.98
2022-10-28T12:28:41.268Z,99588.08
2022-10-28T12:33:47.687Z,99582.20
2022-10-28T12:38:57.450Z,99581.77
2022-10-28T12:44:10.073Z,99582.37
2022-10-28T12:49:32.778Z,99580.79
2022-10-28T12:54:58.029Z,99575.29
2022-10-28T13:00:02.666Z,99574.38
2022-10-28T13:05:06.111Z,99570.02
2022-10-28T13:10:29.885Z,99564.30
2022-10-28T13:15:41.476Z,99562.52
2022-10-28T13:20:53.997Z,99558.24
2022-10-28T13:26:07.858Z,99552.81
2022-10-28T13:31:10.511Z,99548.31
2022-10-28T13:36:21.390Z,99550.19
2022-10-28T13:41:28.750Z,99552.88
2022-10-28T13:47:22.706Z,99556.97
2022-10-28T13:52:25.270Z,99556.30
2022-10-28T13:57:38.264Z,99557.77
2022-10-28T14:02:46.628Z,99554.45
2022-10-28T14:08:01.753Z,99550.16
2022-10-28T14:13:20.623Z,99542.31
2022-10-28T14:23:49.304Z,99534.27
2022-10-28T14:28:52.723Z,99533.25
2022-10-28T14:33:54.494Z,99528.77
2022-10-28T14:39:37.004Z,99525.05
2022-10-28T14:44:57.760Z,99524.84
2022-10-28T14:50:03.485Z,99525.89
2022-10-28T14:55:07.544Z,99524.52
2022-10-28T15:00:19.129Z,99522.61
2022-10-28T15:05:24.869Z,99519.97
2022-10-28T15:10:30.108Z,99519.20
2022-10-28T15:15:37.364Z,99517.30
2022-10-28T15:20:39.559Z,99515.45
2022-10-28T15:25:41.848Z,99515.84
2022-10-28T15:30:46.608Z,99513.10
2022-10-28T15:35:48.945Z,99511.75
2022-10-28T15:40:51.788Z,99507.98
2022-10-28T15:45:54.556Z,99506.06
2022-10-28T15:51:22.978Z,99503.92
2022-10-28T15:56:26.742Z,99504.47
2022-10-28T16:01:39.689Z,99502.43
2022-10-28T16:06:41.973Z,99504.05
2022-10-28T16:11:48.670Z,99502.33
2022-10-28T16:17:15.644Z,99504.30
2022-10-28T16:22:19.055Z,99506.95
2022-10-28T16:27:22.504Z,99504.30
2022-10-28T16:32:38.709Z,99502.96
2022-10-28T16:37:44.640Z,99509.48
2022-10-28T16:42:47.951Z,99514.39
2022-10-28T16:47:49.756Z,99508.29
2022-10-28T16:52:54.292Z,99504.31
2022-10-28T16:57:56.610Z,99508.13
2022-10-28T17:02:59.282Z,99508.52
2022-10-28T17:08:05.794Z,99509.98
2022-10-28T17:13:15.384Z,99508.80
2022-10-28T17:18:17.199Z,99511.38
2022-10-28T17:23:18.926Z,99508.87
2022-10-28T17:28:20.768Z,99509.05
2022-10-28T17:33:23.622Z,99511.17
2022-10-28T17:38:26.114Z,99510.48
2022-10-28T17:43:28.037Z,99506.92
2022-10-28T17:48:30.330Z,99504.36
2022-10-28T17:59:40.651Z,99504.98
2022-10-28T18:04:42.466Z,99500.21
2022-10-28T18:09:44.415Z,99501.36
2022-10-28T18:14:52.937Z,99495.38
2022-10-28T18:20:02.405Z,99491.14
2022-10-28T18:25:04.975Z,99488.05
2022-10-28T18:30:07.578Z,99486.44
2022-10-28T18:35:09.599Z,99492.03
2022-10-28T18:40:12.299Z,99483.50
2022-10-28T18:45:14.341Z,99474.09
2022-10-28T18:50:16.530Z,99472.48
2022-10-28T18:55:18.344Z,99481.80
2022-10-28T19:00:20.719Z,99480.02
2022-10-28T19:05:22.534Z,99486.02
2022-10-28T19:10:24.542Z,99491.67
2022-10-28T19:15:26.666Z,99492.15
2022-10-28T19:20:28.715Z,99492.14
2022-10-28T19:25:30.484Z,99493.87
2022-10-28T19:30:32.772Z,99494.83
2022-10-28T19:35:34.966Z,99497.77
2022-10-28T19:40:37.034Z,99498.54
2022-10-28T19:45:46.908Z,99501.48
2022-10-28T19:50:57.324Z,99504.05
2022-10-28T19:56:01.788Z,99503.14
2022-10-28T20:01:06.579Z,99502.73
2022-10-28T20:06:11.096Z,99502.10
2022-10-28T20:11:16.178Z,99503.98
2022-10-28T20:16:19.672Z,99499.08
2022-10-28T20:21:24.317Z,99496.82
2022-10-28T20:26:31.747Z,99494.01
2022-10-28T20:31:33.862Z,99488.92
2022-10-28T20:36:38.406Z,99486.52
2022-10-28T20:41:41.974Z,99485.01
2022-10-28T20:46:48.288Z,99485.79
2022-10-28T20:51:50.323Z,99481.33
2022-10-28T20:57:11.967Z,99479.14
2022-10-28T21:02:27.387Z,99473.29
2022-10-28T21:07:29.540Z,99479.84
2022-10-28T21:12:36.643Z,99486.13
2022-10-28T21:17:39.135Z,99485.30
2022-10-28T21:22:40.943Z,99486.11
2022-10-28T21:27:42.888Z,99478.71
2022-10-28T21:32:47.635Z,99475.13
2022-10-28T21:38:09.890Z,99464.63
2022-10-28T21:43:18.199Z,99466.48
2022-10-28T21:48:28.117Z,99468.12
2022-10-28T21:53:35.794Z,99464.56
2022-10-28T21:58:39.514Z,99462.79
2022-10-28T22:03:41.548Z,99459.88
2022-10-28T22:08:49.926Z,99450.13
2022-10-28T22:14:03.991Z,99446.56
2022-10-28T22:19:08.734Z,99445.45
2022-10-28T22:24:10.936Z,99441.77
2022-10-28T22:29:12.795Z,99446.31
2022-10-28T22:34:14.774Z,99442.94
2022-10-28T22:39:16.659Z,99447.96
2022-10-28T22:44:18.726Z,99444.17
2022-10-28T22:49:22.660Z,99438.60
2022-10-28T22:54:24.537Z,99436.49
2022-10-28T22:59:26.739Z,99430.60
2022-10-28T23:04:28.821Z,99427.67
2022-10-28T23:09:32.623Z,99422.45
2022-10-28T23:14:38.619Z,99422.54
2022-10-28T23:19:40.476Z,99419.09
2022-10-28T23:24:42.455Z,99412.69
2022-10-28T23:29:44.299Z,99409.16
2022-10-28T23:34:46.221Z,99411.25
2022-10-28T23:39:48.193Z,99404.15
2022-10-28T23:45:10.848Z,99402.46
2022-10-28T23:50:17.580Z,99402.26
2022-10-28T23:55:19.527Z,99395.52
